Time;durP1;ratioP1;P1;durP2;ratioP2;P2;SDS_P1;SDS_P2;PMS_P1;PMS_P2;Temp;Humidity;BMP_temperature;BMP_pressure;BME280_temperature;BME280_humidity;BME280_pressure;Samples;Min_cycle;Max_cycle;Signal;HPM_P1;HPM_P2
2022/01/14 00:01:35;;;;;;;38.08;20.88;;;;;;;-4.10;100.00;101537.97;4974156;28;20034;-66
2022/01/14 00:04:01;;;;;;;38.53;20.75;;;;;;;-3.96;100.00;101511.44;4975217;28;20473;-63
2022/01/14 00:06:26;;;;;;;37.92;21.08;;;;;;;-4.33;100.00;101503.56;4974618;28;20505;-63
2022/01/14 00:08:58;;;;;;;34.22;19.58;;;;;;;-3.94;100.00;101529.75;4974502;28;20515;-64
2022/01/14 00:11:23;;;;;;;37.92;19.60;;;;;;;-4.22;100.00;101492.63;4974669;28;20043;-63
2022/01/14 00:13:56;;;;;;;40.00;20.08;;;;;;;-3.98;100.00;101526.22;4974614;28;20142;-63
2022/01/14 00:16:21;;;;;;;36.65;20.20;;;;;;;-4.26;100.00;101488.28;4973333;28;20500;-63
2022/01/14 00:18:47;;;;;;;37.53;21.50;;;;;;;-4.14;100.00;101526.16;4973263;28;20035;-63
2022/01/14 00:21:12;;;;;;;35.92;20.13;;;;;;;-4.08;100.00;101550.47;4974324;28;20492;-63
2022/01/14 00:23:40;;;;;;;41.85;22.05;;;;;;;-4.10;100.00;101503.22;4973858;28;20560;-63
2022/01/14 00:31:43;;;;;;;45.80;21.67;;;;;;;-3.96;100.00;101509.78;4974155;28;20037;-65
2022/01/14 00:34:13;;;;;;;49.90;27.42;;;;;;;-3.76;100.00;101535.69;4974065;28;20027;-65
2022/01/14 00:36:40;;;;;;;47.47;25.30;;;;;;;-3.82;100.00;101538.72;4974213;28;20031;-65
2022/01/14 00:39:08;;;;;;;40.65;21.38;;;;;;;-3.87;100.00;101519.38;4974162;28;20038;-65
2022/01/14 00:41:35;;;;;;;39.65;19.92;;;;;;;-4.01;100.00;101512.81;4972825;28;20031;-65
2022/01/14 00:44:03;;;;;;;38.40;19.92;;;;;;;-3.94;100.00;101529.75;4972910;28;20057;-65
2022/01/14 00:46:28;;;;;;;40.60;21.45;;;;;;;-3.77;100.00;101514.13;4973702;28;20106;-64
2022/01/14 00:48:54;;;;;;;45.05;24.75;;;;;;;-3.67;100.00;101532.09;4973986;28;20045;-64
2022/01/14 00:51:20;;;;;;;45.15;23.58;;;;;;;-4.24;100.00;101448.66;4973835;28;20086;-64
2022/01/14 00:53:45;;;;;;;42.55;23.45;;;;;;;-3.80;100.00;101529.72;4972246;28;20039;-64
2022/01/14 00:59:14;;;;;;;48.00;24.73;;;;;;;-3.96;100.00;101508.97;4971128;28;20615;-64
2022/01/14 01:01:52;;;;;;;47.25;26.10;;;;;;;-4.05;100.00;101525.81;5011111;22;22404;-64
2022/01/14 01:04:26;;;;;;;50.53;26.15;;;;;;;-4.09;100.00;101524.81;4318643;28;10000596;-64
2022/01/14 01:06:51;;;;;;;46.45;25.77;;;;;;;-3.87;100.00;101517.75;5002916;28;20117;-64
2022/01/14 01:09:17;;;;;;;48.67;25.58;;;;;;;-3.79;100.00;101509.09;5001463;28;20105;-65
2022/01/14 01:11:55;;;;;;;39.53;21.65;;;;;;;-4.14;100.00;101511.25;4992991;28;20124;-65
2022/01/14 01:14:33;;;;;;;42.58;22.33;;;;;;;-4.79;100.00;101428.22;4993076;28;20041;-64
2022/01/14 01:16:58;;;;;;;42.33;20.80;;;;;;;-3.97;100.00;101498.16;4992757;28;20034;-64
2022/01/14 01:19:24;;;;;;;43.90;21.25;;;;;;;-4.29;100.00;101469.84;4992604;28;20526;-64
2022/01/14 01:21:50;;;;;;;43.38;20.63;;;;;;;-4.30;100.00;101468.16;4993206;28;20031;-64
2022/01/14 01:24:16;;;;;;;53.55;23.85;;;;;;;-4.45;100.00;101448.31;5012400;28;20480;-64
2022/01/14 01:26:42;;;;;;;41.08;21.20;;;;;;;-4.43;100.00;101449.25;5012153;28;20088;-64
2022/01/14 01:31:43;;;;;;;43.92;22.38;;;;;;;-4.43;100.00;101486.47;5011985;28;20125;-64
2022/01/14 01:34:18;;;;;;;51.72;24.83;;;;;;;-4.42;100.00;101505.56;5011853;28;20033;-64
2022/01/14 01:36:49;;;;;;;41.97;21.33;;;;;;;-4.49;100.00;101452.25;5012046;28;20026;-64
2022/01/14 01:39:17;;;;;;;37.72;20.17;;;;;;;-4.32;100.00;101492.03;5009922;28;20083;-64
2022/01/14 01:41:51;;;;;;;37.78;20.30;;;;;;;-4.20;100.00;101475.34;5010537;28;20034;-64
2022/01/14 01:44:18;;;;;;;43.47;21.95;;;;;;;-4.70;100.00;101456.03;4992036;28;20049;-64
2022/01/14 01:46:47;;;;;;;54.03;27.83;;;;;;;-4.62;100.00;101405.22;4990847;28;20722;-64
2022/01/14 01:49:14;;;;;;;43.25;23.33;;;;;;;-4.39;100.00;101451.13;4992204;28;20023;-64
2022/01/14 01:51:42;;;;;;;39.20;21.02;;;;;;;-4.83;100.00;101410.63;4990626;28;20060;-64
2022/01/14 01:54:08;;;;;;;39.63;20.55;;;;;;;-4.40;100.00;101446.97;5004222;28;20188;-64
2022/01/14 01:56:34;;;;;;;44.75;21.92;;;;;;;-4.56;100.00;101392.31;5011689;28;20495;-64
2022/01/14 01:58:59;;;;;;;45.05;22.17;;;;;;;-4.83;100.00;101384.19;5011189;28;20034;-64
2022/01/14 02:01:25;;;;;;;39.65;20.90;;;;;;;-4.73;100.00;101345.88;5010284;28;20034;-65
2022/01/14 02:03:53;;;;;;;44.22;22.60;;;;;;;-4.47;100.00;101416.00;5011318;28;20057;-64
2022/01/14 02:06:20;;;;;;;49.28;23.98;;;;;;;-4.81;100.00;101387.59;5011506;28;20030;-65
2022/01/14 02:08:46;;;;;;;46.80;23.38;;;;;;;-4.70;100.00;101396.50;5011436;28;20396;-65
2022/01/14 02:11:12;;;;;;;42.42;23.30;;;;;;;-4.80;100.00;101398.38;5011173;28;20037;-65
2022/01/14 02:13:37;;;;;;;44.75;22.85;;;;;;;-4.64;100.00;101384.44;5010038;28;20459;-65
2022/01/14 02:24:08;;;;;;;62.15;26.85;;;;;;;-4.94;100.00;101338.13;5011237;28;20475;-65
2022/01/14 02:26:46;;;;;;;64.13;28.75;;;;;;;-4.80;100.00;101326.50;5011259;28;20029;-64
2022/01/14 02:29:11;;;;;;;44.35;22.73;;;;;;;-4.96;100.00;101324.78;5011374;28;20081;-65
2022/01/14 02:31:37;;;;;;;42.28;22.48;;;;;;;-4.57;100.00;101369.13;5011017;28;20496;-63
2022/01/14 02:34:02;;;;;;;46.15;23.73;;;;;;;-4.80;100.00;101344.72;5010875;28;20451;-65
2022/01/14 02:36:28;;;;;;;47.75;24.20;;;;;;;-4.85;100.00;101323.75;5010887;28;20033;-65
2022/01/14 02:38:54;;;;;;;53.20;25.65;;;;;;;-4.80;100.00;101356.25;5011319;28;20057;-65
2022/01/14 02:41:19;;;;;;;45.08;23.20;;;;;;;-4.88;100.00;101332.66;5009642;28;20061;-64
2022/01/14 02:43:45;;;;;;;45.58;23.38;;;;;;;-4.56;100.00;101351.00;5010805;28;20083;-64
2022/01/14 02:46:13;;;;;;;49.63;24.75;;;;;;;-4.73;100.00;101350.84;5011091;28;20037;-63
2022/01/14 02:48:39;;;;;;;45.28;24.38;;;;;;;-4.58;100.00;101315.34;5010643;28;20116;-63
2022/01/14 02:51:13;;;;;;;52.55;26.23;;;;;;;-4.00;100.00;101350.69;5009843;28;20399;-63
2022/01/14 02:56:32;;;;;;;53.05;26.45;;;;;;;-4.55;100.00;101346.88;5010886;28;20025;-63
2022/01/14 02:59:00;;;;;;;49.97;24.50;;;;;;;-4.69;100.00;101264.31;5010681;28;20065;-63
2022/01/14 03:01:27;;;;;;;48.90;25.17;;;;;;;-4.42;100.00;101336.88;5010617;28;20034;-63
2022/01/14 03:03:58;;;;;;;60.28;27.13;;;;;;;-4.89;100.00;101294.59;5010958;28;20058;-63
2022/01/14 03:06:25;;;;;;;51.90;26.48;;;;;;;-5.18;100.00;101286.34;5010890;28;20084;-63
2022/01/14 03:08:51;;;;;;;60.28;28.00;;;;;;;-5.25;100.00;101277.72;5010564;28;20034;-63
2022/01/14 03:11:29;;;;;;;63.25;30.00;;;;;;;-4.99;100.00;101289.91;5010426;28;20487;-63
2022/01/14 03:13:55;;;;;;;51.80;25.25;;;;;;;-4.84;100.00;101287.44;5010642;28;20085;-62
2022/01/14 03:16:21;;;;;;;58.80;29.17;;;;;;;-4.79;100.00;101276.13;5009385;28;20040;-63
2022/01/14 03:18:50;;;;;;;62.55;30.95;;;;;;;-4.64;100.00;101292.69;5010254;28;20030;-63
2022/01/14 03:21:25;;;;;;;62.22;30.48;;;;;;;-4.94;100.00;101266.25;5010446;28;20072;-63
2022/01/14 03:24:02;;;;;;;57.88;27.63;;;;;;;-4.38;100.00;101316.41;5010258;28;20041;-63
2022/01/14 03:26:29;;;;;;;52.75;28.77;;;;;;;-4.18;100.00;101310.84;5010294;28;20088;-63
2022/01/14 03:28:54;;;;;;;60.63;30.45;;;;;;;-4.41;100.00;101297.25;5009107;28;20104;-63
2022/01/14 03:31:20;;;;;;;54.00;27.67;;;;;;;-4.79;100.00;101300.91;5010367;28;20026;-62
2022/01/14 03:33:46;;;;;;;56.50;28.48;;;;;;;-4.73;100.00;101296.28;5009125;28;20444;-63
2022/01/14 03:36:12;;;;;;;60.28;29.25;;;;;;;-4.56;100.00;101310.47;5010866;28;20400;-63
2022/01/14 03:38:38;;;;;;;60.20;29.77;;;;;;;-4.27;100.00;101305.41;5010236;28;20030;-62
2022/01/14 03:41:05;;;;;;;53.38;27.55;;;;;;;-4.76;100.00;101298.63;5008994;28;20034;-62
2022/01/14 03:43:32;;;;;;;57.47;29.13;;;;;;;-4.34;100.00;101303.38;5010589;28;20096;-64
2022/01/14 03:45:58;;;;;;;55.20;30.05;;;;;;;-4.40;100.00;101283.22;5010172;28;20033;-63
2022/01/14 03:48:23;;;;;;;55.88;28.95;;;;;;;-4.68;100.00;101265.16;5010461;28;20953;-63
2022/01/14 03:50:49;;;;;;;54.13;29.55;;;;;;;-4.77;100.00;101290.31;5007097;28;20030;-63
2022/01/14 03:53:14;;;;;;;55.38;28.05;;;;;;;-4.90;100.00;101278.03;5010289;28;20030;-63
2022/01/14 03:55:42;;;;;;;54.03;27.90;;;;;;;-5.02;100.00;101251.72;5009891;28;20030;-62
2022/01/14 03:58:09;;;;;;;56.28;29.33;;;;;;;-4.84;100.00;101287.44;5008735;28;20110;-62
2022/01/14 04:00:36;;;;;;;51.28;29.00;;;;;;;-4.78;100.00;101286.16;5010307;28;20037;-63
2022/01/14 04:03:02;;;;;;;51.17;27.75;;;;;;;-4.91;100.00;101273.84;5012723;28;20080;-64
2022/01/14 04:05:27;;;;;;;54.92;28.95;;;;;;;-5.56;100.00;101195.91;5012438;28;20030;-64
2022/01/14 04:07:53;;;;;;;59.50;30.02;;;;;;;-4.99;100.00;101266.78;5012344;28;20385;-64
2022/01/14 04:10:18;;;;;;;59.63;28.50;;;;;;;-4.69;100.00;101271.75;5013325;28;20029;-63
2022/01/14 04:15:37;;;;;;;55.75;28.77;;;;;;;-4.95;100.00;101219.91;5013638;28;20495;-63
2022/01/14 04:18:07;;;;;;;60.60;31.13;;;;;;;-4.98;100.00;101232.16;5013443;28;20037;-63
2022/01/14 04:20:33;;;;;;;69.57;34.58;;;;;;;-4.90;100.00;101230.09;5013620;28;20033;-63
2022/01/14 04:22:59;;;;;;;82.55;40.53;;;;;;;-4.82;100.00;101258.63;5013355;28;20030;-63
2022/01/14 04:25:24;;;;;;;63.30;33.08;;;;;;;-4.65;100.00;101260.34;5013382;28;20546;-63
2022/01/14 04:27:50;;;;;;;60.05;31.83;;;;;;;-4.70;100.00;101271.66;5013345;28;20034;-64
2022/01/14 04:30:16;;;;;;;63.33;33.90;;;;;;;-4.87;100.00;101265.78;5013420;28;20030;-63
2022/01/14 04:32:41;;;;;;;79.18;39.60;;;;;;;-4.72;100.00;101226.09;5013044;28;20030;-63
2022/01/14 04:35:08;;;;;;;73.90;38.40;;;;;;;-4.96;100.00;101257.88;5004548;28;20034;-63
2022/01/14 04:37:33;;;;;;;72.15;36.33;;;;;;;-4.52;100.00;101257.75;4993620;28;20381;-63
2022/01/14 04:39:59;;;;;;;66.53;31.38;;;;;;;-4.80;100.00;101262.88;4993390;28;20037;-61
2022/01/14 04:42:26;;;;;;;56.05;31.25;;;;;;;-5.12;100.00;101185.94;4992079;28;20104;-61
2022/01/14 04:44:54;;;;;;;56.15;30.52;;;;;;;-4.75;100.00;101268.94;4993632;28;20052;-61
2022/01/14 04:47:32;;;;;;;56.22;30.95;;;;;;;-4.61;100.00;101264.72;4992041;28;20034;-65
2022/01/14 04:49:59;;;;;;;66.82;32.95;;;;;;;-4.81;100.00;101231.41;4993059;28;20032;-64
2022/01/14 04:52:26;;;;;;;67.63;34.88;;;;;;;-4.88;100.00;101231.03;4992787;28;20038;-64
2022/01/14 04:54:51;;;;;;;157.18;64.28;;;;;;;-4.80;100.00;101234.75;4993144;28;20035;-64
2022/01/14 04:57:17;;;;;;;129.48;57.03;;;;;;;-4.75;100.00;101268.06;4993061;28;20030;-64
2022/01/14 04:59:46;;;;;;;122.00;57.65;;;;;;;-4.74;100.00;101273.13;4993222;28;20030;-65
2022/01/14 05:02:13;;;;;;;87.07;45.78;;;;;;;-4.46;100.00;101263.06;4991621;28;20433;-64
2022/01/14 05:04:40;;;;;;;98.95;51.85;;;;;;;-4.84;100.00;101260.16;4991747;28;20038;-64
2022/01/14 05:07:09;;;;;;;102.07;54.30;;;;;;;-5.31;100.00;101211.34;4992724;28;20480;-63
2022/01/14 05:09:40;;;;;;;95.07;50.35;;;;;;;-4.67;100.00;101217.25;4991797;28;20037;-63
2022/01/14 05:12:09;;;;;;;93.63;49.20;;;;;;;-4.73;100.00;101239.25;4991603;28;20030;-63
2022/01/14 05:14:35;;;;;;;82.05;43.45;;;;;;;-4.99;100.00;101205.66;4991678;28;20058;-65
2022/01/14 05:17:00;;;;;;;76.00;39.92;;;;;;;-4.74;100.00;101205.34;4991397;28;20069;-64
2022/01/14 05:19:26;;;;;;;74.38;38.20;;;;;;;-5.04;100.00;101191.31;4992779;28;20099;-63
2022/01/14 05:21:52;;;;;;;62.35;34.67;;;;;;;-4.84;100.00;101185.78;4992649;28;20034;-64
2022/01/14 05:24:17;;;;;;;68.50;36.03;;;;;;;-5.00;100.00;101183.28;4992504;28;20030;-63
2022/01/14 05:26:43;;;;;;;101.80;51.80;;;;;;;-4.76;100.00;101244.94;4992678;28;20256;-63
2022/01/14 05:29:08;;;;;;;100.18;50.33;;;;;;;-4.65;100.00;101261.22;4992312;28;20109;-63
2022/01/14 05:31:44;;;;;;;80.45;40.70;;;;;;;-4.62;100.00;101246.50;4992280;28;20081;-64
2022/01/14 05:34:09;;;;;;;109.00;50.70;;;;;;;-4.55;100.00;101233.66;4990802;28;20026;-64
2022/01/14 05:36:35;;;;;;;80.60;42.47;;;;;;;-4.56;100.00;101231.09;4992198;28;20034;-62
2022/01/14 05:39:00;;;;;;;91.85;46.38;;;;;;;-4.92;100.00;101212.66;4991207;28;20026;-63
2022/01/14 05:41:26;;;;;;;82.63;42.30;;;;;;;-4.93;100.00;101158.06;4991023;28;20527;-63
2022/01/14 05:43:51;;;;;;;84.53;43.83;;;;;;;-5.04;100.00;101169.88;4990883;28;20408;-63
2022/01/14 05:46:16;;;;;;;81.85;41.13;;;;;;;-4.64;100.00;101190.16;4991801;28;20488;-64
2022/01/14 05:48:42;;;;;;;86.75;44.75;;;;;;;-4.33;100.00;101151.25;4992077;28;20033;-63
2022/01/14 05:51:07;;;;;;;90.53;50.38;;;;;;;-4.47;100.00;101199.31;4997996;28;20068;-64
2022/01/14 05:53:33;;;;;;;89.20;45.30;;;;;;;-4.27;100.00;101159.00;5011675;28;20135;-64
2022/01/14 05:55:58;;;;;;;153.23;74.30;;;;;;;-4.97;100.00;101133.88;5011818;28;20030;-62
2022/01/14 05:58:23;;;;;;;129.02;66.80;;;;;;;-4.57;100.00;101199.63;5011113;28;20037;-62
2022/01/14 06:00:49;;;;;;;141.48;74.38;;;;;;;-4.47;100.00;101200.19;5011166;28;20040;-62
2022/01/14 06:03:14;;;;;;;92.18;48.33;;;;;;;-4.37;100.00;101201.50;5010773;28;20053;-62
2022/01/14 06:05:40;;;;;;;75.07;40.47;;;;;;;-4.22;100.00;101197.31;5011211;28;20040;-64
2022/01/14 06:08:05;;;;;;;68.75;36.55;;;;;;;-4.69;100.00;101132.03;5011002;28;20029;-63
2022/01/14 06:10:31;;;;;;;72.70;37.08;;;;;;;-4.18;100.00;101186.75;5011372;28;20029;-64
2022/01/14 06:12:57;;;;;;;68.60;36.58;;;;;;;-4.78;100.00;101178.69;5011067;28;20030;-64
2022/01/14 06:15:22;;;;;;;74.32;38.05;;;;;;;-4.58;100.00;101196.31;5010813;28;20088;-64
2022/01/14 06:17:47;;;;;;;73.45;40.28;;;;;;;-4.55;100.00;101131.97;5010592;28;20465;-62
2022/01/14 06:20:13;;;;;;;83.45;42.88;;;;;;;-4.50;100.00;101144.59;5011473;28;20037;-62
2022/01/14 06:22:39;;;;;;;75.90;40.90;;;;;;;-4.07;100.00;101188.16;5011372;28;20029;-62
2022/01/14 06:25:05;;;;;;;82.88;41.50;;;;;;;-2.83;100.00;101206.50;5011034;28;20041;-62
2022/01/14 06:27:32;;;;;;;83.45;43.72;;;;;;;-2.46;100.00;101212.34;5011001;28;20558;-63
2022/01/14 06:30:02;;;;;;;86.97;46.28;;;;;;;-3.13;100.00;101150.44;5009448;28;20033;-62
2022/01/14 06:32:28;;;;;;;96.70;49.63;;;;;;;-1.62;100.00;101191.84;5011174;28;20080;-63
2022/01/14 06:34:53;;;;;;;106.13;57.67;;;;;;;-1.24;100.00;101156.78;5010867;28;20041;-64
2022/01/14 06:37:19;;;;;;;89.80;51.70;;;;;;;-0.36;100.00;101180.84;5011120;28;20037;-64
2022/01/14 06:39:44;;;;;;;98.28;57.67;;;;;;;-1.72;100.00;101159.84;5011040;28;20034;-64
2022/01/14 06:42:10;;;;;;;93.82;56.95;;;;;;;-1.04;100.00;101175.84;5010799;28;20472;-64
2022/01/14 06:44:35;;;;;;;98.75;56.55;;;;;;;-0.12;100.00;101161.72;5010743;28;20048;-64
2022/01/14 06:47:01;;;;;;;106.13;60.83;;;;;;;-0.16;100.00;101124.94;5011055;28;20033;-64
2022/01/14 06:49:27;;;;;;;113.53;68.50;;;;;;;0.20;100.00;101141.09;5010622;28;20118;-64
2022/01/14 06:51:53;;;;;;;117.75;70.55;;;;;;;1.57;100.00;101185.31;5010838;28;20052;-64
2022/01/14 06:54:19;;;;;;;113.43;67.93;;;;;;;1.77;100.00;101156.63;5010812;28;20476;-63
2022/01/14 06:56:44;;;;;;;88.60;51.35;;;;;;;1.70;100.00;101103.81;5010669;28;20037;-63
2022/01/14 06:59:09;;;;;;;82.32;48.55;;;;;;;2.15;100.00;101149.22;5010751;28;20033;-63
2022/01/14 07:01:35;;;;;;;65.82;39.30;;;;;;;1.19;100.00;101088.22;5009417;28;20034;-63
2022/01/14 07:04:00;;;;;;;65.47;38.25;;;;;;;1.93;100.00;101150.34;5010475;28;20069;-63
2022/01/14 07:06:26;;;;;;;66.32;40.22;;;;;;;0.87;100.00;101116.53;5010893;28;20032;-64
2022/01/14 07:08:52;;;;;;;63.08;37.22;;;;;;;2.32;100.00;101075.22;5010702;28;20076;-63
2022/01/14 07:11:18;;;;;;;64.05;40.72;;;;;;;0.93;100.00;101115.84;5009283;28;20514;-64
2022/01/14 07:13:43;;;;;;;76.22;44.67;;;;;;;2.34;100.00;101093.66;5010350;28;20033;-63
2022/01/14 07:16:09;;;;;;;62.13;37.00;;;;;;;2.10;100.00;101125.72;5010847;28;20058;-64
2022/01/14 07:18:34;;;;;;;58.00;33.97;;;;;;;0.26;100.00;101100.47;5010339;28;20034;-64
2022/01/14 07:21:00;;;;;;;57.42;34.75;;;;;;;-1.76;100.00;101153.88;5010581;28;20408;-64
2022/01/14 07:23:26;;;;;;;62.00;36.40;;;;;;;-2.08;100.00;101097.78;5010466;28;20397;-63
2022/01/14 07:25:51;;;;;;;59.83;36.00;;;;;;;-2.05;100.00;101089.59;5010514;28;20037;-63
2022/01/14 07:28:16;;;;;;;60.40;33.53;;;;;;;-1.53;100.00;101128.25;5010574;28;20113;-63
2022/01/14 07:30:42;;;;;;;60.25;33.38;;;;;;;-1.48;100.00;101121.78;5010422;28;20046;-63
2022/01/14 07:33:07;;;;;;;49.17;28.55;;;;;;;-2.58;100.00;101117.25;5010385;28;20506;-62
2022/01/14 07:35:33;;;;;;;53.08;30.60;;;;;;;-2.53;100.00;101042.78;5010588;28;20352;-62
2022/01/14 07:37:58;;;;;;;57.05;33.13;;;;;;;-1.63;100.00;101065.50;5012922;28;20026;-61
2022/01/14 07:40:24;;;;;;;56.13;31.25;;;;;;;-1.54;100.00;101105.72;5014069;28;20037;-61
2022/01/14 07:42:49;;;;;;;61.92;33.45;;;;;;;-1.66;100.00;101090.34;5013975;28;20447;-61
2022/01/14 07:45:15;;;;;;;62.42;36.35;;;;;;;-2.19;100.00;101101.50;5012714;28;20488;-61
2022/01/14 07:47:40;;;;;;;74.25;44.60;;;;;;;-0.86;100.00;101096.66;5013834;28;20060;-62
2022/01/14 07:50:07;;;;;;;76.68;44.72;;;;;;;-1.22;100.00;101102.81;5014037;28;20030;-62
2022/01/14 07:52:32;;;;;;;53.55;31.35;;;;;;;-1.80;100.00;101055.75;5013916;28;20088;-64
2022/01/14 07:54:58;;;;;;;64.10;36.03;;;;;;;-0.96;100.00;101089.66;5013594;28;20109;-63
2022/01/14 07:57:23;;;;;;;74.88;42.03;;;;;;;-1.70;100.00;101098.47;5013980;28;20025;-64
2022/01/14 07:59:49;;;;;;;63.60;37.90;;;;;;;-1.44;100.00;101057.91;5012656;28;20502;-62
2022/01/14 08:02:15;;;;;;;61.13;34.40;;;;;;;-1.56;100.00;101023.44;5013815;28;20050;-62
2022/01/14 08:04:41;;;;;;;66.30;36.67;;;;;;;-1.23;100.00;101091.97;5013731;28;20038;-62
2022/01/14 08:07:10;;;;;;;61.95;36.75;;;;;;;-1.67;100.00;101076.16;5013717;28;20518;-62
2022/01/14 08:09:38;;;;;;;60.53;34.67;;;;;;;-0.70;100.00;101036.53;5013574;28;20042;-62
2022/01/14 08:12:05;;;;;;;59.65;35.40;;;;;;;-1.12;100.00;101027.53;5012052;28;20433;-62
2022/01/14 08:14:30;;;;;;;59.35;35.05;;;;;;;-0.84;100.00;101084.25;5013508;28;20037;-62
2022/01/14 08:16:56;;;;;;;59.78;34.15;;;;;;;-1.21;100.00;101065.44;5013508;28;20213;-63
2022/01/14 08:19:21;;;;;;;55.03;33.10;;;;;;;-1.09;100.00;101082.53;5013586;28;20105;-62
2022/01/14 08:21:47;;;;;;;57.55;32.97;;;;;;;-1.39;100.00;101029.91;5012163;28;20029;-61
2022/01/14 08:24:12;;;;;;;59.47;34.88;;;;;;;-1.88;100.00;101038.78;5013176;28;20404;-62
2022/01/14 08:26:37;;;;;;;75.63;43.55;;;;;;;-0.73;100.00;101031.41;5012941;28;20484;-61
2022/01/14 08:29:03;;;;;;;55.05;32.10;;;;;;;-0.51;100.00;101046.31;5011960;28;20034;-61
2022/01/14 08:31:29;;;;;;;51.60;29.98;;;;;;;-0.91;100.00;100985.84;5013008;28;20112;-62
2022/01/14 08:33:54;;;;;;;50.13;30.23;;;;;;;-1.55;100.00;100964.47;5013768;28;20091;-62
2022/01/14 08:36:20;;;;;;;56.60;33.08;;;;;;;-0.85;100.00;100971.09;5013287;28;20030;-62
2022/01/14 08:38:46;;;;;;;49.28;27.55;;;;;;;-1.65;100.00;100962.44;5011629;28;20069;-62
2022/01/14 08:41:11;;;;;;;59.45;32.13;;;;;;;-0.82;100.00;101033.59;5012921;28;20431;-62
2022/01/14 08:43:37;;;;;;;47.17;27.10;;;;;;;-0.87;100.00;100981.03;5011491;28;20038;-61
2022/01/14 08:46:02;;;;;;;44.10;25.35;;;;;;;-0.51;100.00;101005.50;5012752;28;20038;-64
2022/01/14 08:48:30;;;;;;;48.00;26.65;;;;;;;-0.88;100.00;100921.97;5013123;28;20088;-62
2022/01/14 08:50:56;;;;;;;49.28;27.23;;;;;;;-1.17;100.00;100969.19;5012701;28;20471;-62
2022/01/14 08:53:22;;;;;;;47.65;26.40;;;;;;;-1.04;100.00;101009.56;5013074;28;20184;-62
2022/01/14 08:55:47;;;;;;;47.10;25.02;;;;;;;-1.08;100.00;100964.50;5013149;28;20546;-62
2022/01/14 08:58:13;;;;;;;44.10;25.42;;;;;;;-0.86;100.00;101006.84;5012431;28;20483;-61
2022/01/14 09:00:39;;;;;;;44.53;25.90;;;;;;;-0.33;100.00;100988.63;5013000;28;20036;-62
2022/01/14 09:03:06;;;;;;;49.50;27.42;;;;;;;-0.21;100.00;101001.50;5011289;28;20443;-61
2022/01/14 09:05:32;;;;;;;47.70;26.38;;;;;;;0.13;100.00;100995.91;5012440;28;20068;-62
2022/01/14 09:07:58;;;;;;;52.10;29.92;;;;;;;-0.23;100.00;100991.47;5012547;28;20030;-62
2022/01/14 09:10:24;;;;;;;56.53;31.20;;;;;;;-0.06;100.00;100980.34;5012383;28;20030;-61
2022/01/14 09:12:49;;;;;;;45.33;26.77;;;;;;;-0.64;100.00;100936.88;5012580;28;20041;-62
2022/01/14 09:15:15;;;;;;;43.53;26.02;;;;;;;-0.65;100.00;100922.69;5012400;28;20037;-62
2022/01/14 09:17:41;;;;;;;42.50;24.80;;;;;;;-0.11;100.00;100976.88;5012462;28;20072;-62
2022/01/14 09:20:09;;;;;;;46.53;25.05;;;;;;;-0.53;100.00;100894.75;5012237;28;20080;-62
2022/01/14 09:22:35;;;;;;;42.88;25.00;;;;;;;-0.72;100.00;100885.00;5011257;28;20424;-62
2022/01/14 09:25:05;;;;;;;44.47;25.15;;;;;;;0.06;100.00;100962.38;5012166;28;20034;-62
2022/01/14 09:27:33;;;;;;;42.38;23.75;;;;;;;-0.37;100.00;100950.22;5010831;28;20030;-61
2022/01/14 09:29:59;;;;;;;41.22;25.00;;;;;;;-0.55;100.00;100927.19;5012328;28;20527;-62
2022/01/14 09:32:25;;;;;;;49.63;28.60;;;;;;;-0.07;100.00;100945.31;5010954;28;20424;-63
2022/01/14 09:34:51;;;;;;;57.92;35.90;;;;;;;-0.17;100.00;100929.22;5011940;28;20042;-63
2022/01/14 09:37:17;;;;;;;43.90;27.33;;;;;;;-0.35;100.00;100887.84;5012053;28;20034;-62
2022/01/14 09:39:45;;;;;;;48.70;29.85;;;;;;;-0.03;100.00;100903.00;5011684;28;20506;-62
2022/01/14 09:42:15;;;;;;;100.38;48.22;;;;;;;0.03;100.00;100899.81;5011796;28;20034;-62
2022/01/14 09:44:42;;;;;;;48.97;27.52;;;;;;;-0.04;100.00;100896.28;5012075;28;20131;-62
2022/01/14 09:47:08;;;;;;;53.25;34.25;;;;;;;-0.04;100.00;100856.31;5011990;28;20034;-62
2022/01/14 09:49:34;;;;;;;43.80;25.17;;;;;;;-0.03;100.00;100857.16;5012211;28;20045;-62
2022/01/14 09:52:00;;;;;;;44.10;25.50;;;;;;;0.04;100.00;100844.03;5011788;28;20547;-62
2022/01/14 09:54:25;;;;;;;48.15;30.45;;;;;;;0.24;100.00;100805.44;5009974;28;20033;-62
2022/01/14 09:56:51;;;;;;;52.50;29.63;;;;;;;0.56;100.00;100834.63;5012037;28;20476;-62
2022/01/14 09:59:18;;;;;;;49.63;29.88;;;;;;;0.65;100.00;100826.53;5010113;28;20497;-62
2022/01/14 10:01:46;;;;;;;53.22;31.13;;;;;;;0.92;100.00;100829.69;5011354;28;20034;-62
2022/01/14 10:04:20;;;;;;;76.32;42.47;;;;;;;1.32;100.00;100834.84;5012136;28;20059;-62
2022/01/14 10:06:54;;;;;;;55.08;33.17;;;;;;;1.54;100.00;100841.19;5011393;28;20585;-62
2022/01/14 10:09:39;;;;;;;55.05;32.58;;;;;;;1.28;100.00;100803.03;5011891;28;20037;-62
2022/01/14 10:12:13;;;;;;;43.58;25.83;;;;;;;1.62;100.00;100807.94;5011350;28;20037;-61
2022/01/14 10:14:40;;;;;;;48.60;31.55;;;;;;;1.27;100.00;100810.53;5011360;28;20500;-62
2022/01/14 10:17:08;;;;;;;57.83;33.15;;;;;;;1.71;100.00;100795.63;5011349;28;20482;-62
2022/01/14 10:19:43;;;;;;;57.10;33.08;;;;;;;1.58;100.00;100773.66;5009767;28;20079;-61
2022/01/14 10:22:21;;;;;;;57.60;35.58;;;;;;;2.18;100.00;100796.56;5011412;28;20034;-62
2022/01/14 10:25:02;;;;;;;53.13;30.05;;;;;;;2.27;100.00;100790.88;5011153;28;20484;-64
2022/01/14 10:27:48;;;;;;;72.03;42.95;;;;;;;2.11;100.00;100737.09;5010977;28;20458;-62
2022/01/14 10:30:32;;;;;;;38.90;23.40;;;;;;;2.10;100.00;100783.03;5011275;28;20107;-63
2022/01/14 10:33:04;;;;;;;37.30;24.17;;;;;;;2.32;100.00;100769.22;5010887;28;20105;-62
2022/01/14 10:35:34;;;;;;;34.70;22.55;;;;;;;2.10;100.00;100709.50;5011308;28;20029;-62
2022/01/14 10:38:03;;;;;;;55.45;32.92;;;;;;;2.13;100.00;100699.50;5009549;28;20030;-62
2022/01/14 10:40:31;;;;;;;36.92;24.70;;;;;;;2.61;100.00;100722.91;5011214;28;20048;-62
2022/01/14 10:43:10;;;;;;;40.45;26.75;;;;;;;2.73;100.00;100732.28;5011044;28;20029;-62
2022/01/14 10:45:37;;;;;;;32.92;21.92;;;;;;;3.01;100.00;100711.78;5011029;28;20038;-61
2022/01/14 10:48:09;;;;;;;34.00;23.50;;;;;;;3.17;100.00;100668.50;5010935;28;20491;-62
2022/01/14 10:50:38;;;;;;;40.72;26.52;;;;;;;3.27;100.00;100661.06;5010531;28;20064;-63
2022/01/14 10:53:41;;;;;;;38.20;22.52;;;;;;;3.32;100.00;100697.16;5010939;28;20117;-64
2022/01/14 10:56:11;;;;;;;32.05;20.02;;;;;;;3.59;100.00;100653.91;4999450;28;20038;-63
2022/01/14 10:58:43;;;;;;;29.55;17.63;;;;;;;3.29;100.00;100631.78;5010742;28;20109;-64
2022/01/14 11:01:20;;;;;;;27.63;17.15;;;;;;;3.21;100.00;100630.03;5010363;28;20045;-64
2022/01/14 11:03:52;;;;;;;24.98;15.25;;;;;;;3.42;100.00;100656.25;5010552;28;20041;-63
2022/01/14 11:06:31;;;;;;;24.75;16.52;;;;;;;3.28;100.00;100606.66;5010657;28;20484;-63
2022/01/14 11:09:07;;;;;;;25.35;17.00;;;;;;;3.27;100.00;100592.38;5010825;28;20062;-63
2022/01/14 11:11:39;;;;;;;29.85;19.27;;;;;;;3.98;100.00;100651.78;5010851;28;20030;-63
2022/01/14 11:14:05;;;;;;;;;;;;;;;4.00;100.00;100659.38;5015230;28;20092;-63
2022/01/14 11:16:32;;;;;;;81.32;35.03;;;;;;;3.96;100.00;100657.66;5014627;28;19955;-63
2022/01/14 11:19:00;;;;;;;25.55;17.48;;;;;;;3.70;100.00;100616.31;5014619;28;20470;-63
2022/01/14 11:24:37;;;;;;;37.28;22.35;;;;;;;4.31;100.00;100631.97;5014386;28;20032;-63
2022/01/14 11:27:12;;;;;;;46.85;26.55;;;;;;;4.51;100.00;100583.44;5014412;28;20033;-64
2022/01/14 11:29:42;;;;;;;29.55;19.95;;;;;;;4.37;100.00;100614.41;5013188;28;20451;-63
2022/01/14 11:32:09;;;;;;;32.83;21.17;;;;;;;4.40;100.00;100580.84;5014053;28;20447;-64